SBEGFMNM

Guest
Details From SBEG - Eduardo Gomes
To FMNM - Philibert Tsiranana
Flight Number -
Tags Generated
Created
Modified
Stats Distance 6,301 nm / 11,669 km
Max Altitude 0 ft / 0 m
Waypoints 3
Social Downloads 0
Likes 0
Share VATSIM

Download

Looking for another format? Having issues loading an existing format? Contact us
Advertisement - Login to hide

Notes

Generated

Route

SBEG MG FMNM

ID Type Via Altitude Latitude Longitude Leg Dist Tot Dist Heading (true) Name
O SBEG APT - 0 ft / 0 m -3.03858˚ -60.06189˚ - 0 nm - -
MG VOR - 0 ft / 0 m -15.65750˚ 46.34067˚ 6300 nm 6300 nm 107° / 82° PHILIBERT TSIRANANA VOR-DME
O FMNM APT - 0 ft / 0 m -15.66046˚ 46.34422˚ 0 nm 6300 nm 131° / 131° -

Altitude Profile

Advertisement - Login to hide

Weather


0- 5 10 15 20 25 30 35+ Temperature / ° C

Clouds and Precipitation
Forecast for 2017-12-11 06:00 UTC. Updated 28 minutes ago

Ground ~20,000 ft ~40,000 ft Winds

SBEG

Details ICAO SBEG (MAO)
Name Eduardo Gomes
Region Brazil
Timezone America/Manaus (UTC-4.0)
Stats Elevation 264 ft / 80 m (AMSL)
Location -3.038611° -60.049723°
Runways 1
Magnetic Variation 15.760° W

METAR

SBEG 110500Z 18004KT 9999 BKN007 25/24 Q1009

Decode

TAF

TAF SBEG 102200Z 1100/1124 00000KT 9999 FEW010 TN24/1107Z TX30/1116Z BECMG 1106/1108 0800 FG SCT006 BECMG 1110/1112 03002KT 9999 SCT007 BECMG 1114/1116 6000 TSRA SCT015 FEW025CB BECMG 1118/1120 9999 FEW015 FEW025TCU BECMG 1122/1123 00000KT FEW015 RMK PDY

Decode

Departure Runways

ID Width Length Bearing (true) Bearing (mag) Surface Threshold Offset Overrun Length
10 148 ft / 45 m 8,867 ft / 2,703 m 90.13° 105.89° Asphalt 0 ft / 0 m 215 ft / 66 m
28 148 ft / 45 m 8,867 ft / 2,703 m 270.13° 285.89° Asphalt 0 ft / 0 m 250 ft / 76 m

FMNM

Details ICAO FMNM (MJN)
Name PHILIBERT TSIRANANA
Region Comoros, Mayotte, Réunion and Madagascar
Timezone Indian/Antananarivo (UTC+3.0)
Stats Elevation 87 ft / 27 m (AMSL)
Location -15.667144° 46.351829°
Runways 1
Magnetic Variation 11.235° W

METAR

FMNM 110500Z 29003KT 9999 VCSH FEW010 SCT017CB 28/25 Q1013 NOSIG

Decode

TAF

Not found

Destination Runways

ID Width Length Bearing (true) Bearing (mag) Surface Threshold Offset Overrun Length
14 148 ft / 45 m 7,235 ft / 2,205 m 132.37° 143.60° Asphalt 0 ft / 0 m 98 ft / 30 m
32 148 ft / 45 m 7,235 ft / 2,205 m 312.37° 323.60° Asphalt 0 ft / 0 m 98 ft / 30 m